Lansing, MI (48919)

1:17 AM EDT on August 24, 2016 (GMT -0400)
Shaw Estates | | Change Station

Elev 869 ft 42.73 °N, 84.54 °W | Updated 51 seconds ago

Clear
Clear
65.5 °F
Feels Like 65.5 °F
N
0.0
Wind Variable Wind from South
Gusts 0.0 mph

Today
High -- | Low -- °F
--% Chance of Precip.
Yesterday
High -- | Low -- °F
Precip. -- in
Pressure 30.15 in
Visibility 10.0 miles
Clouds Clear
Dew Point 59 °F
Humidity 80%
Rainfall 0.00 in
Snow Depth Not available.
6:54 AM 8:25 PM
Waning Gibbous, 61% visible
METAR KLAN 240453Z 18006KT 10SM CLR 19/14 A3017 RMK AO2 SLP210 T01940144 402670139
Pressure 30.15 in
Visibility 10.0 miles
Clouds Clear
Dew Point 59 °F
Humidity 80%
Rainfall 0.00 in
Snow Depth Not available.
6:54 AM 8:25 PM
Waning Gibbous, 61% visible
METAR KLAN 240453Z 18006KT 10SM CLR 19/14 A3017 RMK AO2 SLP210 T01940144 402670139

10-Day Weather Forecast

Almanac

Astronomy

Aug. 24, 2016 Rise Set
Actual Time
Civil Twilight
Nautical Twilight
Astronomical Twilight
Moon
Length of Visible Light
Length of Day
Tomorrow will be .
, % of the Moon is Illuminated

Today's Extremes

State Highs State Lows

Community

WunderPhotos

Upload Photos

1,934,554 photos uploaded!

WunderBlog® & News

Nearby

Air Quality

  Air Quality AQ Index Pollutant
Not available.

Snow Depth

Station Depth Elevation

Earthquake Activity

City Distance Mag. Time & Date
Minimum magnitude displayed is 2.5.

Coastal Water Temperatures

Place Temperature

Stations

Nearby Weather Stations

Station Location Temp. Windchill Dew Point Humidity Wind Precip. Elev Updated Type
                   

Watches & Warnings

There are currently no watches in effect.